CYTL

Big Trout Lake Airport

Big Trout Lake, Ontario, Canada
METAR CYTL 201700Z AUTO 33009G16KT 9SM -SN BKN012 BKN016 OVC022 M03/M05 A3004 RMK SLP193
Observed Flight Rules
Oct-20 @ 17:00 UTC (44 minutes ago) Marginal Visual Flight Rules
Wind Visibility Clouds Conditions
330° at 9 knots
 Gusting to 16 knots
9 miles
  • Broken at 1,200' AGL
  • Broken at 1,600' AGL
  • Overcast at 2,200' AGL
  • Light Snow
Temperatures Readings
Current -3°C / 27°F
Dewpoint -5°C / 23°F
Humidity 86%
Altimeter 30.04" Hg
Pressure 1019.3 hPa
Elevation 224
METAR CYTL 201700Z AUTO 33009G16KT 9SM -SN BKN012 BKN016 OVC022 M03/M05 A3004 RMK SLP193
Observed Flight Rules
Oct-20 @ 17:00 UTC
(44 minutes ago)
MVFR
Wind Visibility
330° at 9 knots
 Gusting to 16 knots
9 miles
Clouds
  • Broken at 1,200' AGL
  • Broken at 1,600' AGL
  • Overcast at 2,200' AGL
Conditions
  • Light Snow
Temperature Dewpoint
-3°C / 27°F -5°C / 23°F
Humidity Altimeter Pressure
86% 30.04" Hg 1019.3 hPa